createdAt,value
2023-04-08T09:45:42.622Z,16.41
2023-04-08T09:46:57.203Z,16.35
2023-04-08T09:48:21.179Z,16.36
2023-04-08T09:55:21.512Z,16.64
2023-04-08T09:56:26.625Z,16.45
2023-04-08T09:57:41.374Z,16.40
2023-04-08T09:58:47.832Z,16.53
2023-04-08T09:59:53.525Z,16.56
2023-04-08T10:00:57.443Z,16.57
2023-04-08T10:02:03.026Z,16.68
2023-04-08T10:03:52.421Z,16.82
2023-04-08T10:04:57.973Z,16.65
2023-04-08T10:06:04.077Z,16.64
2023-04-08T10:07:08.961Z,16.59
2023-04-08T10:08:11.762Z,16.65
2023-04-08T10:09:14.357Z,16.60
2023-04-08T10:10:18.144Z,16.58
2023-04-08T10:11:20.866Z,16.58
2023-04-08T10:12:23.746Z,16.76
2023-04-08T10:13:28.613Z,16.91
2023-04-08T10:14:32.011Z,16.90
2023-04-08T10:15:36.570Z,17.03
2023-04-08T10:16:39.410Z,16.99
2023-04-08T10:17:42.282Z,16.90
2023-04-08T10:18:44.746Z,17.01
2023-04-08T10:19:46.970Z,17.17
2023-04-08T10:20:49.958Z,17.21
2023-04-08T10:21:53.535Z,17.37
2023-04-08T10:22:57.070Z,17.51
2023-04-08T10:24:02.223Z,17.60
2023-04-08T10:26:48.287Z,17.87
2023-04-08T10:27:50.793Z,17.79
2023-04-08T10:28:53.497Z,17.87
2023-04-08T10:29:56.087Z,17.87
2023-04-08T10:30:59.756Z,17.96
2023-04-08T10:32:02.961Z,17.96
2023-04-08T10:33:27.627Z,17.82
2023-04-08T10:34:31.020Z,17.89
2023-04-08T10:36:49.611Z,18.07
2023-04-08T10:37:57.126Z,17.93
2023-04-08T10:39:00.833Z,18.03
2023-04-08T10:40:06.059Z,18.13
2023-04-08T10:41:13.449Z,18.22
2023-04-08T10:42:16.226Z,18.26
2023-04-08T10:43:19.408Z,18.16
2023-04-08T10:44:24.532Z,18.12
2023-04-08T10:45:27.456Z,18.05
2023-04-08T10:46:35.772Z,18.07
2023-04-08T10:47:39.736Z,17.97
2023-04-08T10:48:42.173Z,18.01
2023-04-08T10:49:45.619Z,17.98
2023-04-08T10:51:01.773Z,17.89
2023-04-08T10:52:09.767Z,17.95
2023-04-08T10:53:12.258Z,17.92
2023-04-08T10:54:18.129Z,17.99
2023-04-08T10:55:24.538Z,18.03
2023-04-08T10:56:28.343Z,18.22
2023-04-08T10:57:31.878Z,18.28
2023-04-08T10:58:36.410Z,18.40
2023-04-08T10:59:39.315Z,18.38
2023-04-08T11:00:43.065Z,18.52
2023-04-08T11:01:46.285Z,18.59
2023-04-08T11:02:49.419Z,18.67
2023-04-08T11:03:52.652Z,18.82
2023-04-08T11:04:56.160Z,18.99
2023-04-08T11:06:00.535Z,19.26
2023-04-08T11:07:07.284Z,19.46
2023-04-08T11:08:09.710Z,19.51
2023-04-08T11:09:13.361Z,19.26
2023-04-08T11:10:17.092Z,19.16
2023-04-08T11:11:21.110Z,18.95
2023-04-08T11:12:23.438Z,19.02
2023-04-08T11:13:27.030Z,19.09
2023-04-08T11:14:31.952Z,19.15
2023-04-08T11:15:36.415Z,19.26
2023-04-08T11:16:40.326Z,19.18
2023-04-08T11:17:44.474Z,19.22
2023-04-08T11:18:47.931Z,19.09
2023-04-08T11:19:53.229Z,18.90
2023-04-08T11:20:57.660Z,18.99
2023-04-08T11:22:00.829Z,19.02
2023-04-08T11:23:03.327Z,18.95
2023-04-08T11:24:13.257Z,18.93
2023-04-08T11:25:15.981Z,19.10
2023-04-08T11:26:20.409Z,19.33
2023-04-08T11:27:24.981Z,19.44
2023-04-08T11:28:28.189Z,19.61
2023-04-08T11:29:30.565Z,19.73
2023-04-08T11:30:33.715Z,19.78
2023-04-08T11:31:36.533Z,19.93
2023-04-08T11:32:39.520Z,20.01
2023-04-08T11:33:49.400Z,20.16
2023-04-08T11:34:53.337Z,20.21
2023-04-08T11:35:57.057Z,20.24
2023-04-08T11:37:00.000Z,20.34
2023-04-08T11:38:04.715Z,20.29
2023-04-08T11:39:11.001Z,20.22
2023-04-08T11:40:15.706Z,20.16
2023-04-08T11:41:18.234Z,20.09
2023-04-08T11:42:31.968Z,20.10
2023-04-08T11:43:37.125Z,20.03
2023-04-08T11:44:40.393Z,19.89
2023-04-08T11:45:43.983Z,20.02
2023-04-08T11:48:16.318Z,20.19
2023-04-08T11:49:19.826Z,19.90
2023-04-08T11:50:25.980Z,20.05
2023-04-08T11:51:28.762Z,20.08
2023-04-08T11:52:47.918Z,20.05
2023-04-08T11:53:52.707Z,19.87
2023-04-08T11:54:56.334Z,19.89
2023-04-08T11:56:02.318Z,19.97
2023-04-08T11:57:05.787Z,20.07
2023-04-08T11:58:09.060Z,19.92
2023-04-08T11:59:13.442Z,19.80
2023-04-08T12:00:17.545Z,19.71
2023-04-08T12:01:22.278Z,19.48
2023-04-08T12:02:28.018Z,19.43
2023-04-08T12:03:30.607Z,19.40
2023-04-08T12:04:33.779Z,19.44
2023-04-08T12:05:36.483Z,19.64
2023-04-08T12:06:39.035Z,19.82
2023-04-08T12:07:42.411Z,20.04
2023-04-08T12:08:45.871Z,20.24
2023-04-08T12:09:48.739Z,20.41
2023-04-08T12:10:52.199Z,20.49
2023-04-08T12:11:56.210Z,20.61
2023-04-08T12:12:59.111Z,20.73
2023-04-08T12:14:01.427Z,20.93
2023-04-08T12:15:05.974Z,20.98
2023-04-08T12:16:09.547Z,20.88
2023-04-08T12:17:12.039Z,20.76
2023-04-08T12:18:14.304Z,20.92
2023-04-08T12:19:16.718Z,21.15
2023-04-08T12:20:20.066Z,21.39
2023-04-08T12:21:22.585Z,21.86
2023-04-08T12:22:25.407Z,21.86
2023-04-08T12:23:27.560Z,21.81
2023-04-08T12:24:29.624Z,21.86
2023-04-08T12:25:32.005Z,21.39
2023-04-08T12:26:35.230Z,20.94
2023-04-08T12:27:37.384Z,20.39
2023-04-08T12:28:41.112Z,19.91
2023-04-08T12:29:43.640Z,19.75
2023-04-08T12:30:46.313Z,19.63
2023-04-08T12:31:48.723Z,19.53
2023-04-08T12:32:54.396Z,19.24
2023-04-08T12:33:57.409Z,19.30
2023-04-08T12:34:59.744Z,19.44
2023-04-08T12:36:02.856Z,19.48
2023-04-08T12:37:05.311Z,19.71
2023-04-08T12:38:08.178Z,19.74
2023-04-08T12:39:11.158Z,19.76
2023-04-08T12:40:15.444Z,19.66
2023-04-08T12:41:18.030Z,19.58
2023-04-08T12:42:20.807Z,19.48
2023-04-08T12:43:25.041Z,19.36
2023-04-08T12:44:27.421Z,19.19
2023-04-08T12:45:29.666Z,19.09
2023-04-08T12:46:32.571Z,19.02
2023-04-08T12:47:35.123Z,18.95
2023-04-08T12:48:38.000Z,18.84
2023-04-08T12:50:46.036Z,18.51
2023-04-08T12:51:48.629Z,18.38
2023-04-08T12:52:51.377Z,18.30
2023-04-08T12:53:54.590Z,18.17
2023-04-08T12:54:57.464Z,18.11
2023-04-08T12:55:59.519Z,18.08
2023-04-08T12:57:02.353Z,17.91
2023-04-08T12:58:05.598Z,17.85
2023-04-08T12:59:09.489Z,17.81
2023-04-08T13:00:13.806Z,17.58
2023-04-08T13:01:17.237Z,17.36
2023-04-08T13:02:19.901Z,17.29
2023-04-08T13:03:22.493Z,17.23
2023-04-08T13:04:25.156Z,17.28
2023-04-08T13:05:42.024Z,17.42
2023-04-08T13:06:32.783Z,17.20
2023-04-08T13:07:35.075Z,17.08
2023-04-08T13:08:37.773Z,16.95
2023-04-08T13:09:40.143Z,16.94
2023-04-08T13:10:43.064Z,16.74
2023-04-08T13:11:45.384Z,16.38
2023-04-08T13:12:48.329Z,16.27
2023-04-08T13:13:51.162Z,16.27
2023-04-08T13:14:55.775Z,16.05
2023-04-08T13:15:58.313Z,16.03
2023-04-08T13:17:00.545Z,15.92
2023-04-08T13:18:05.338Z,15.79
2023-04-08T13:19:07.684Z,15.73
2023-04-08T13:20:12.170Z,15.63
2023-04-08T13:21:15.537Z,15.45
2023-04-08T13:22:18.795Z,15.31
2023-04-08T13:23:21.592Z,15.27
2023-04-08T13:24:23.992Z,15.22
2023-04-08T13:25:26.639Z,15.22
2023-04-08T13:26:30.053Z,15.05
2023-04-08T13:27:33.296Z,15.05
2023-04-08T13:28:53.840Z,15.10
2023-04-08T13:29:40.812Z,15.07
2023-04-08T13:30:44.485Z,15.00
2023-04-08T13:31:48.120Z,14.95
2023-04-08T13:32:51.111Z,14.68
2023-04-08T13:33:57.651Z,14.62
2023-04-08T13:34:58.488Z,14.66
2023-04-08T13:36:01.000Z,14.60
2023-04-08T13:37:03.760Z,14.71
2023-04-08T13:38:07.324Z,14.71
2023-04-08T13:39:10.922Z,14.75
2023-04-08T13:40:14.322Z,14.63
2023-04-08T13:41:17.031Z,14.58
2023-04-08T13:42:20.602Z,14.69
2023-04-08T13:43:23.661Z,14.66
2023-04-08T13:44:26.706Z,14.68
2023-04-08T13:45:30.245Z,14.65
2023-04-08T13:46:33.068Z,14.61
2023-04-08T13:47:37.935Z,14.61
2023-04-08T13:48:42.469Z,14.67
2023-04-08T13:49:45.159Z,14.65
2023-04-08T13:50:48.792Z,14.64
2023-04-08T13:51:51.297Z,14.67
2023-04-08T13:52:54.876Z,14.65
2023-04-08T13:53:58.601Z,14.64
2023-04-08T13:55:02.006Z,14.67
2023-04-08T13:56:06.283Z,14.69
2023-04-08T13:57:08.680Z,14.59
2023-04-08T13:58:21.149Z,14.66
2023-04-08T13:59:15.222Z,14.61
2023-04-08T14:00:17.887Z,14.61
2023-04-08T14:01:22.277Z,14.57
2023-04-08T14:02:26.048Z,14.54
2023-04-08T14:03:29.473Z,14.59
2023-04-08T14:04:33.539Z,14.59
2023-04-08T14:05:37.350Z,14.60
2023-04-08T14:06:39.675Z,14.65
2023-04-08T14:07:41.960Z,14.63
2023-04-08T14:08:44.178Z,14.73
2023-04-08T14:09:46.543Z,14.79
2023-04-08T14:10:48.983Z,14.95
2023-04-08T14:11:51.663Z,14.99
2023-04-08T14:12:54.044Z,15.14
2023-04-08T14:13:57.239Z,15.08
2023-04-08T14:15:00.027Z,15.16
2023-04-08T14:16:03.777Z,15.11
2023-04-08T14:17:06.535Z,15.10
2023-04-08T14:18:10.555Z,15.11
2023-04-08T14:19:14.324Z,15.12
2023-04-08T14:20:18.329Z,15.13
2023-04-08T14:21:21.277Z,15.12
2023-04-08T14:22:23.597Z,15.12
2023-04-08T14:23:26.934Z,15.13
2023-04-08T14:24:30.471Z,15.20
2023-04-08T14:25:33.051Z,15.20
2023-04-08T14:26:37.085Z,15.12
2023-04-08T14:27:54.660Z,15.08
2023-04-08T14:28:46.399Z,15.17
2023-04-08T14:29:48.667Z,15.11
2023-04-08T14:30:51.497Z,15.11
2023-04-08T14:31:53.827Z,15.16
2023-04-08T14:32:57.145Z,15.13
2023-04-08T14:33:59.963Z,15.18
2023-04-08T14:35:02.229Z,15.20
2023-04-08T14:36:05.569Z,15.20
2023-04-08T14:37:10.629Z,15.20
2023-04-08T14:38:12.998Z,15.11
2023-04-08T14:39:15.567Z,15.11
2023-04-08T14:40:18.213Z,15.19
2023-04-08T14:41:22.261Z,15.29
2023-04-08T14:42:24.650Z,15.29
2023-04-08T14:43:27.639Z,15.32
2023-04-08T14:44:30.079Z,15.36
2023-04-08T14:45:32.724Z,15.41
2023-04-08T14:46:35.399Z,15.46
2023-04-08T14:47:39.512Z,15.52
2023-04-08T14:48:42.127Z,15.53
2023-04-08T14:49:45.593Z,15.59
2023-04-08T14:50:48.031Z,15.60
2023-04-08T14:51:52.603Z,15.57
2023-04-08T14:52:54.957Z,15.54
2023-04-08T14:53:57.329Z,15.60
2023-04-08T14:54:59.885Z,15.63
2023-04-08T14:56:02.254Z,15.66
2023-04-08T14:57:08.759Z,15.67
2023-04-08T14:58:11.175Z,15.70
2023-04-08T14:59:14.742Z,15.69
2023-04-08T15:00:17.412Z,15.71
2023-04-08T15:01:22.703Z,15.72
2023-04-08T15:02:25.882Z,15.73
2023-04-08T15:03:29.008Z,15.72
2023-04-08T15:04:31.505Z,15.73
2023-04-08T15:05:36.661Z,15.71
2023-04-08T15:06:40.419Z,15.69
2023-04-08T15:07:43.303Z,15.66
2023-04-08T15:08:46.745Z,15.60
2023-04-08T15:09:49.027Z,15.57
2023-04-08T15:10:51.555Z,15.18
2023-04-08T15:11:53.819Z,14.90
2023-04-08T15:12:56.192Z,14.88
2023-04-08T15:13:58.353Z,14.79
2023-04-08T15:15:01.626Z,14.65
2023-04-08T15:16:05.906Z,14.54
2023-04-08T15:17:09.627Z,14.52
2023-04-08T15:18:13.177Z,14.50
2023-04-08T15:19:15.481Z,14.44
2023-04-08T15:20:20.940Z,14.44
2023-04-08T15:21:23.672Z,14.45
2023-04-08T15:22:26.563Z,14.45
2023-04-08T15:23:29.681Z,14.43
2023-04-08T15:24:33.084Z,14.44
2023-04-08T15:25:35.960Z,14.45
2023-04-08T15:26:38.323Z,14.47
2023-04-08T15:27:41.020Z,14.47
2023-04-08T15:28:43.307Z,14.41
2023-04-08T15:29:45.759Z,14.41
2023-04-08T15:30:50.345Z,14.37
2023-04-08T15:31:53.269Z,14.35
2023-04-08T15:32:57.389Z,14.28
2023-04-08T15:33:59.617Z,14.16
2023-04-08T15:35:03.405Z,14.04
2023-04-08T15:36:06.516Z,14.00
2023-04-08T15:37:09.520Z,13.96
2023-04-08T15:38:11.903Z,13.95
2023-04-08T15:39:14.532Z,13.87
2023-04-08T15:40:18.033Z,13.88
2023-04-08T15:42:31.948Z,13.95
2023-04-08T15:43:34.558Z,13.85
2023-04-08T15:44:37.281Z,13.86
2023-04-08T15:45:44.981Z,13.85
2023-04-08T15:46:48.413Z,13.87
2023-04-08T15:47:51.813Z,13.88
2023-04-08T15:48:54.529Z,13.85
2023-04-08T15:49:57.329Z,13.79
2023-04-08T15:51:07.750Z,13.79
2023-04-08T15:52:10.141Z,13.77
2023-04-08T15:53:13.495Z,13.78
2023-04-08T15:54:16.257Z,13.80
2023-04-08T15:55:19.673Z,13.79
2023-04-08T15:56:22.116Z,13.70
2023-04-08T15:57:26.190Z,13.69
2023-04-08T15:58:28.728Z,13.66
2023-04-08T15:59:32.740Z,13.68
2023-04-08T16:00:35.645Z,13.72
2023-04-08T16:01:40.252Z,13.69
2023-04-08T16:02:43.952Z,13.73
2023-04-08T16:03:46.666Z,13.77
2023-04-08T16:04:49.406Z,13.74
2023-04-08T16:05:52.385Z,13.77
2023-04-08T16:06:55.284Z,13.77
2023-04-08T16:07:57.687Z,13.81
2023-04-08T16:09:00.640Z,13.80
2023-04-08T16:10:04.204Z,13.77
2023-04-08T16:11:07.561Z,13.78
2023-04-08T16:12:10.202Z,13.75
2023-04-08T16:13:12.880Z,13.67
2023-04-08T16:14:16.321Z,13.64
2023-04-08T16:15:18.619Z,13.66
2023-04-08T16:16:20.861Z,13.64
2023-04-08T16:17:23.689Z,13.60
2023-04-08T16:18:26.446Z,13.58
2023-04-08T16:19:28.891Z,13.54
2023-04-08T16:20:31.777Z,13.53
2023-04-08T16:21:34.149Z,13.56
2023-04-08T16:22:36.525Z,13.58
2023-04-08T16:23:38.749Z,13.58
2023-04-08T16:24:40.917Z,13.54
2023-04-08T16:25:44.841Z,13.49
2023-04-08T16:26:47.194Z,13.48
2023-04-08T16:27:49.955Z,13.46
2023-04-08T16:28:53.929Z,13.37
2023-04-08T16:29:56.985Z,13.37
2023-04-08T16:30:59.844Z,13.37
2023-04-08T16:32:03.195Z,13.33
2023-04-08T16:33:05.842Z,13.29
2023-04-08T16:34:08.400Z,13.30
2023-04-08T16:35:12.127Z,13.34
2023-04-08T16:36:15.697Z,13.32
2023-04-08T16:37:18.167Z,13.29
2023-04-08T16:38:20.388Z,13.30
2023-04-08T16:39:23.114Z,13.30
2023-04-08T16:40:26.613Z,13.30
2023-04-08T16:41:29.907Z,13.28
2023-04-08T16:42:33.575Z,13.25
2023-04-08T16:43:37.349Z,13.29
2023-04-08T16:44:40.199Z,13.28
2023-04-08T16:45:43.660Z,13.22
2023-04-08T16:46:46.943Z,13.23
2023-04-08T16:47:49.410Z,13.25
2023-04-08T16:48:51.920Z,13.26
2023-04-08T16:49:54.478Z,13.25
2023-04-08T16:50:57.230Z,13.24
2023-04-08T16:51:59.854Z,13.21
2023-04-08T16:53:03.155Z,13.21
2023-04-08T16:54:06.006Z,13.21
2023-04-08T16:55:09.163Z,13.20
2023-04-08T16:56:15.916Z,13.21
2023-04-08T16:57:19.073Z,13.20
2023-04-08T16:58:21.359Z,13.20
2023-04-08T16:59:24.910Z,13.17
2023-04-08T17:00:27.331Z,13.17
2023-04-08T17:01:29.894Z,13.19
2023-04-08T17:02:32.831Z,13.19
2023-04-08T17:03:36.762Z,13.19
2023-04-08T17:04:40.258Z,13.10
2023-04-08T17:05:43.275Z,13.12
2023-04-08T17:06:46.491Z,13.09
2023-04-08T17:07:49.112Z,13.10
2023-04-08T17:08:52.775Z,13.12
2023-04-08T17:09:55.257Z,13.10
2023-04-08T17:11:12.310Z,13.11
2023-04-08T17:12:15.299Z,13.08
2023-04-08T17:13:17.354Z,13.13
2023-04-08T17:14:19.891Z,13.15
2023-04-08T17:15:22.328Z,13.11
2023-04-08T17:16:24.763Z,13.11
2023-04-08T17:17:27.142Z,13.15
2023-04-08T17:18:29.949Z,13.16
2023-04-08T17:19:32.208Z,13.17
2023-04-08T17:20:35.054Z,13.17
2023-04-08T17:21:37.499Z,13.21
2023-04-08T17:22:39.852Z,13.21
2023-04-08T17:23:42.297Z,13.20
2023-04-08T17:24:47.806Z,13.18
2023-04-08T17:25:49.940Z,13.17
2023-04-08T17:26:52.186Z,13.09
2023-04-08T17:27:54.655Z,12.97
2023-04-08T17:28:56.724Z,12.91
2023-04-08T17:29:58.979Z,12.91
2023-04-08T17:31:01.477Z,12.89
2023-04-08T17:32:03.979Z,12.96
2023-04-08T17:33:06.735Z,12.96
2023-04-08T17:34:10.094Z,13.05
2023-04-08T17:35:13.233Z,13.13
2023-04-08T17:36:17.011Z,13.20
2023-04-08T17:37:19.689Z,13.20
2023-04-08T17:38:22.141Z,13.17
2023-04-08T17:39:24.388Z,13.19
2023-04-08T17:40:27.440Z,13.20
2023-04-08T17:41:39.687Z,13.27
2023-04-08T17:42:34.415Z,13.32
2023-04-08T17:43:36.665Z,13.30
2023-04-08T17:44:41.907Z,13.37
2023-04-08T17:45:44.492Z,13.25
2023-04-08T17:46:47.852Z,13.22
2023-04-08T17:47:51.867Z,13.19
2023-04-08T17:48:54.351Z,13.24
2023-04-08T17:49:56.896Z,13.32
2023-04-08T17:51:01.691Z,13.39
2023-04-08T17:52:05.695Z,13.38
2023-04-08T17:53:08.067Z,13.44
2023-04-08T17:54:10.294Z,13.50
2023-04-08T17:55:15.452Z,13.39
2023-04-08T17:56:18.210Z,13.39
2023-04-08T17:57:22.412Z,13.46
2023-04-08T17:58:24.728Z,13.50
2023-04-08T17:59:27.354Z,13.49
2023-04-08T18:00:29.715Z,13.46
2023-04-08T18:01:32.114Z,13.37
2023-04-08T18:02:37.206Z,13.37
2023-04-08T18:03:39.845Z,13.39
2023-04-08T18:04:43.147Z,13.35
2023-04-08T18:05:46.757Z,13.29
2023-04-08T18:06:49.098Z,13.26
2023-04-08T18:07:52.062Z,13.31
2023-04-08T18:08:54.382Z,13.36
2023-04-08T18:09:56.708Z,13.32
2023-04-08T18:10:59.676Z,13.26
2023-04-08T18:12:03.157Z,13.14
2023-04-08T18:13:11.436Z,13.04
2023-04-08T18:14:10.269Z,13.02
2023-04-08T18:15:13.752Z,12.99
2023-04-08T18:16:18.997Z,12.88
2023-04-08T18:17:22.059Z,12.88
2023-04-08T18:18:25.211Z,12.89
2023-04-08T18:19:28.814Z,12.81
2023-04-08T18:20:37.480Z,12.78
2023-04-08T18:21:40.523Z,12.73
2023-04-08T18:22:43.642Z,12.73
2023-04-08T18:23:48.903Z,12.81
2023-04-08T18:24:51.518Z,12.81
2023-04-08T18:25:54.715Z,12.78
2023-04-08T18:27:04.395Z,12.73
2023-04-08T18:28:02.546Z,12.75
2023-04-08T18:29:05.862Z,12.77
2023-04-08T18:30:09.187Z,12.78
2023-04-08T18:31:11.528Z,12.79
2023-04-08T18:32:14.024Z,12.72
2023-04-08T18:33:17.404Z,12.70
2023-04-08T18:34:21.711Z,12.72
2023-04-08T18:35:25.781Z,12.70
2023-04-08T18:36:28.642Z,12.68
2023-04-08T18:37:31.304Z,12.64
2023-04-08T18:38:36.036Z,12.63
2023-04-08T18:39:41.353Z,12.60
2023-04-08T18:40:45.986Z,12.53
2023-04-08T18:41:48.820Z,12.56
2023-04-08T18:42:51.724Z,12.54
2023-04-08T18:43:55.126Z,12.55
2023-04-08T18:44:57.537Z,12.61
2023-04-08T18:46:00.189Z,12.53
2023-04-08T18:47:03.559Z,12.48
2023-04-08T18:48:06.542Z,12.47
2023-04-08T18:49:08.881Z,12.49
2023-04-08T18:50:12.350Z,12.48
2023-04-08T18:51:18.322Z,12.47
2023-04-08T18:52:21.585Z,12.49
2023-04-08T18:53:24.147Z,12.54
2023-04-08T18:54:28.043Z,12.47
2023-04-08T18:55:34.527Z,12.43
2023-04-08T18:56:37.217Z,12.42
2023-04-08T18:57:40.279Z,12.41
2023-04-08T18:58:44.026Z,12.42
2023-04-08T18:59:48.781Z,12.48
2023-04-08T19:00:51.296Z,12.50
2023-04-08T19:01:55.085Z,12.49
2023-04-08T19:02:59.056Z,12.54
2023-04-08T19:04:02.325Z,12.54
2023-04-08T19:05:06.805Z,12.56
2023-04-08T19:06:13.189Z,12.54
2023-04-08T19:07:17.551Z,12.61
2023-04-08T19:08:23.861Z,12.67
2023-04-08T19:09:27.025Z,12.74
2023-04-08T19:10:34.748Z,12.85
2023-04-08T19:11:37.492Z,12.85
2023-04-08T19:12:39.828Z,12.80
2023-04-08T19:13:42.365Z,12.84
2023-04-08T19:14:45.512Z,12.91
2023-04-08T19:15:47.981Z,12.90
2023-04-08T19:16:50.602Z,12.74
2023-04-08T19:17:54.135Z,12.71
2023-04-08T19:18:57.807Z,12.68
2023-04-08T19:20:00.256Z,12.69
2023-04-08T19:21:03.082Z,12.76
2023-04-08T19:22:05.298Z,12.74
2023-04-08T19:23:08.316Z,12.67
2023-04-08T19:24:11.949Z,12.65
2023-04-08T19:25:14.868Z,12.65
2023-04-08T19:26:18.651Z,12.70
2023-04-08T19:27:21.046Z,12.76
2023-04-08T19:28:23.555Z,12.73
2023-04-08T19:29:28.214Z,12.77
2023-04-08T19:30:32.542Z,12.78
2023-04-08T19:31:35.016Z,12.66
2023-04-08T19:32:38.619Z,12.69
2023-04-08T19:33:42.299Z,12.61
2023-04-08T19:34:44.994Z,12.65
2023-04-08T19:35:48.840Z,12.71
2023-04-08T19:36:51.387Z,12.77
2023-04-08T19:37:53.707Z,12.80
2023-04-08T19:38:56.732Z,12.84
2023-04-08T19:39:59.174Z,12.89
2023-04-08T19:41:01.876Z,12.97
2023-04-08T19:42:04.524Z,13.04
2023-04-08T19:43:07.563Z,13.13
2023-04-08T19:44:10.064Z,13.21
2023-04-08T19:45:13.447Z,13.29
2023-04-08T19:46:17.281Z,13.30
2023-04-08T19:47:19.605Z,13.36
2023-04-08T19:48:22.191Z,13.40
2023-04-08T19:49:25.773Z,13.40
2023-04-08T19:50:28.233Z,13.43
2023-04-08T19:51:32.879Z,13.45
2023-04-08T19:52:35.589Z,13.50
2023-04-08T19:53:37.989Z,13.51
2023-04-08T19:54:42.315Z,13.57
2023-04-08T19:55:45.213Z,13.62
2023-04-08T19:56:47.553Z,13.63
2023-04-08T19:57:51.792Z,13.61
2023-04-08T19:58:54.798Z,13.61
2023-04-08T19:59:57.895Z,13.56
2023-04-08T20:01:00.479Z,13.52
2023-04-08T20:02:03.549Z,13.48
2023-04-08T20:03:08.205Z,13.45
2023-04-08T20:04:12.084Z,13.46
2023-04-08T20:05:16.537Z,13.40
2023-04-08T20:06:20.144Z,13.33
2023-04-08T20:07:23.277Z,13.28
2023-04-08T20:08:25.487Z,13.28
2023-04-08T20:09:29.319Z,13.28
2023-04-08T20:10:31.709Z,13.32
2023-04-08T20:11:35.248Z,13.35
2023-04-08T20:12:37.976Z,13.39
2023-04-08T20:13:40.956Z,13.43
2023-04-08T20:14:44.438Z,13.46
2023-04-08T20:15:47.256Z,13.48
2023-04-08T20:16:49.620Z,13.38
2023-04-08T20:17:53.218Z,13.40
2023-04-08T20:18:55.920Z,13.44
2023-04-08T20:19:59.135Z,13.50
2023-04-08T20:21:01.306Z,13.50
2023-04-08T20:22:03.443Z,13.47
2023-04-08T20:23:06.711Z,13.37
2023-04-08T20:24:09.112Z,13.42
2023-04-08T20:25:11.336Z,13.40
2023-04-08T20:26:15.598Z,13.43
2023-04-08T20:27:21.512Z,13.49
2023-04-08T20:28:25.119Z,13.52
2023-04-08T20:29:28.550Z,13.54
2023-04-08T20:30:31.807Z,13.60
2023-04-08T20:31:35.305Z,13.63
2023-04-08T20:32:37.710Z,13.65
2023-04-08T20:33:42.483Z,13.69
2023-04-08T20:34:44.902Z,13.73
2023-04-08T20:35:53.791Z,13.76
2023-04-08T20:36:56.703Z,13.62
2023-04-08T20:37:59.748Z,13.60
2023-04-08T20:39:03.566Z,13.60
2023-04-08T20:40:08.616Z,13.44
2023-04-08T20:41:12.584Z,13.43
2023-04-08T20:42:15.253Z,13.25
2023-04-08T20:43:17.509Z,13.19
2023-04-08T20:44:20.185Z,13.14
2023-04-08T20:45:23.772Z,13.01
2023-04-08T20:46:27.701Z,12.93
2023-04-08T20:47:30.435Z,12.89
2023-04-08T20:48:34.179Z,12.90
2023-04-08T20:49:39.596Z,12.87
2023-04-08T20:50:42.332Z,12.84
2023-04-08T20:52:56.379Z,12.94
2023-04-08T20:53:59.791Z,12.87
2023-04-08T20:55:02.214Z,12.88
2023-04-08T20:56:05.251Z,12.78
2023-04-08T20:57:07.487Z,12.83
2023-04-08T20:58:10.456Z,12.85
2023-04-08T20:59:13.236Z,12.86
2023-04-08T21:00:17.729Z,12.85
2023-04-08T21:01:24.325Z,12.86
2023-04-08T21:02:26.896Z,12.91
2023-04-08T21:03:29.471Z,12.92
2023-04-08T21:04:32.371Z,12.91
2023-04-08T21:05:37.878Z,12.78
2023-04-08T21:06:41.355Z,12.77
2023-04-08T21:07:44.157Z,12.79
2023-04-08T21:08:48.111Z,12.69
2023-04-08T21:09:50.843Z,12.70
2023-04-08T21:10:53.834Z,12.71
2023-04-08T21:11:56.639Z,12.71
2023-04-08T21:13:01.352Z,12.70
2023-04-08T21:14:03.684Z,12.73
2023-04-08T21:15:07.640Z,12.75
2023-04-08T21:16:10.363Z,12.75
2023-04-08T21:17:12.895Z,12.76
2023-04-08T21:18:15.152Z,12.67
2023-04-08T21:19:17.337Z,12.69
2023-04-08T21:20:20.734Z,12.69
2023-04-08T21:21:23.411Z,12.74
2023-04-08T21:22:25.847Z,12.70
2023-04-08T21:23:28.337Z,12.60
2023-04-08T21:24:30.798Z,12.43
2023-04-08T21:25:34.958Z,12.32
2023-04-08T21:26:37.144Z,12.30
2023-04-08T21:27:42.403Z,12.30
2023-04-08T21:28:45.889Z,12.22
2023-04-08T21:29:52.513Z,12.19
2023-04-08T21:30:55.621Z,12.14
2023-04-08T21:31:58.267Z,12.17
2023-04-08T21:33:00.910Z,12.16
2023-04-08T21:34:05.156Z,12.24
2023-04-08T21:35:09.313Z,12.24
2023-04-08T21:36:12.035Z,12.21
2023-04-08T21:37:16.316Z,12.23
2023-04-08T21:38:18.717Z,12.25
2023-04-08T21:39:21.773Z,12.19
2023-04-08T21:40:24.158Z,12.22
2023-04-08T21:41:28.354Z,12.24
2023-04-08T21:42:33.452Z,12.24
2023-04-08T21:43:36.536Z,12.12
2023-04-08T21:44:40.143Z,11.91
2023-04-08T21:45:44.001Z,11.83
2023-04-08T21:46:48.343Z,11.77
2023-04-08T21:47:50.862Z,11.82
2023-04-08T21:48:53.779Z,11.85
2023-04-08T21:49:56.435Z,11.92
2023-04-08T21:50:59.655Z,11.90
2023-04-08T21:52:03.030Z,11.89
2023-04-08T21:53:06.466Z,11.91
2023-04-08T21:54:09.574Z,11.91
2023-04-08T21:55:11.985Z,11.91
2023-04-08T21:56:14.461Z,11.89
2023-04-08T21:57:16.719Z,11.75
2023-04-08T21:58:19.458Z,11.73
2023-04-08T21:59:21.715Z,11.54
2023-04-08T22:00:24.259Z,11.54
2023-04-08T22:01:26.679Z,11.56
2023-04-08T22:02:29.459Z,11.55
2023-04-08T22:03:32.100Z,11.53
2023-04-08T22:04:36.487Z,11.53
2023-04-08T22:05:39.048Z,11.54
2023-04-08T22:06:42.018Z,11.53
2023-04-08T22:07:44.360Z,11.63
2023-04-08T22:08:46.855Z,11.69
2023-04-08T22:09:49.188Z,11.70
2023-04-08T22:10:53.028Z,11.70
2023-04-08T22:11:56.290Z,11.71
2023-04-08T22:12:58.713Z,11.74
2023-04-08T22:14:01.058Z,11.76
2023-04-08T22:15:04.142Z,11.76
2023-04-08T22:16:07.313Z,11.81
2023-04-08T22:17:10.103Z,11.81
2023-04-08T22:18:12.456Z,11.84
2023-04-08T22:19:15.340Z,11.84
2023-04-08T22:20:18.908Z,11.87
2023-04-08T22:21:21.339Z,11.92
2023-04-08T22:22:23.683Z,11.93
2023-04-08T22:23:25.830Z,11.93
2023-04-08T22:24:28.255Z,11.97
2023-04-08T22:25:31.545Z,12.04
2023-04-08T22:26:34.121Z,12.06
2023-04-08T22:27:37.933Z,12.10
2023-04-08T22:28:40.802Z,12.08
2023-04-08T22:29:43.935Z,12.08
2023-04-08T22:30:46.217Z,12.08
2023-04-08T22:31:48.723Z,12.04
2023-04-08T22:32:51.162Z,11.93
2023-04-08T22:33:53.430Z,11.88
2023-04-08T22:34:55.792Z,11.76
2023-04-08T22:35:57.953Z,11.60
2023-04-08T22:37:00.867Z,11.44
2023-04-08T22:38:03.209Z,11.42
2023-04-08T22:39:05.747Z,11.42
2023-04-08T22:40:09.024Z,11.42
2023-04-08T22:41:19.847Z,11.44
2023-04-08T22:42:22.346Z,11.46
2023-04-08T22:43:25.104Z,11.51
2023-04-08T22:44:27.297Z,11.55
2023-04-08T22:45:29.827Z,11.52
2023-04-08T22:46:33.118Z,11.51
2023-04-08T22:47:36.785Z,11.49
2023-04-08T22:48:42.293Z,11.54
2023-04-08T22:49:45.720Z,11.55
2023-04-08T22:50:48.470Z,11.41
2023-04-08T22:51:50.598Z,11.37
2023-04-08T22:52:53.843Z,11.36
2023-04-08T22:53:57.126Z,11.25
2023-04-08T22:54:59.412Z,11.21
2023-04-08T22:56:02.474Z,11.16
2023-04-08T22:57:04.944Z,11.12
2023-04-08T22:58:07.205Z,11.09
2023-04-08T22:59:10.406Z,11.03
2023-04-08T23:00:14.161Z,11.02
2023-04-08T23:01:20.185Z,11.02
2023-04-08T23:02:22.637Z,10.98
2023-04-08T23:03:26.238Z,10.93
2023-04-08T23:04:28.521Z,10.90
2023-04-08T23:05:31.062Z,10.92
2023-04-08T23:06:34.452Z,10.94
2023-04-08T23:07:36.875Z,10.99
2023-04-08T23:08:39.428Z,11.06
2023-04-08T23:09:41.537Z,11.02
2023-04-08T23:10:44.291Z,10.99
2023-04-08T23:11:46.569Z,10.98
2023-04-08T23:12:48.976Z,10.96
2023-04-08T23:13:51.337Z,10.96
2023-04-08T23:14:54.182Z,10.99
2023-04-08T23:15:57.358Z,11.00
2023-04-08T23:17:00.223Z,11.02
2023-04-08T23:18:03.943Z,11.06
2023-04-08T23:19:07.493Z,11.02
2023-04-08T23:20:10.751Z,10.90
2023-04-08T23:21:13.103Z,10.90
2023-04-08T23:22:15.516Z,10.74
2023-04-08T23:23:19.019Z,10.56
2023-04-08T23:24:21.917Z,10.45
2023-04-08T23:25:24.328Z,10.35
2023-04-08T23:26:26.740Z,10.37
2023-04-08T23:27:30.172Z,10.32
2023-04-08T23:28:32.460Z,10.28
2023-04-08T23:29:34.777Z,10.30
2023-04-08T23:30:37.340Z,10.31
2023-04-08T23:31:40.084Z,10.35
2023-04-08T23:32:43.280Z,10.28
2023-04-08T23:33:46.223Z,10.27
2023-04-08T23:34:48.531Z,10.15
2023-04-08T23:35:50.901Z,10.13
2023-04-08T23:36:53.400Z,10.10